^^
MeteoGriva-Weather Station Historical Data
Daily Summary for March 13, 2020 Units:  Metric    English   Both
Daily Weekly Monthly Yearly Custom
  High: Low: Average:
Temperature: 15.2 °C 8.4 °C 11.5 °C
Dew Point: 11.5 °C 7.3 °C 9.4 °C
Humidity: 95% 76.4% 87%
Wind Speed: 2.2km/h 0km/h 0.1km/h
Wind Gust: 12.2km/h - -
Wind- - ESE
Pressure: 1024.7 hPa 1021.7 hPa -
Precipitation: 0.0 mm    
Historical Graphs
 
 
Tabular Data for March 13, 2020
Time Temperature Dew Point Pressure Wind Wind Speed Wind Gust Humidity Rainfall Rate (Hourly) solar
00:04 9.3 °C 8.2 °C 1024.4 hPa Calm     93% 0.0 mm 0 W/m2
00:09 9.3 °C 8.2 °C 1024.0 hPa Calm     93% 0.0 mm 0 W/m2
00:14 9.3 °C 8.2 °C 1024.4 hPa Calm     93% 0.0 mm 0 W/m2
00:19 9.3 °C 8 °C 1024.4 hPa Calm     91.4% 0.0 mm 0 W/m2
00:24 9.4 °C 7.8 °C 1024.0 hPa Calm     89.9% 0.0 mm 0 W/m2
00:29 9.4 °C 7.9 °C 1024.0 hPa Calm     90.3% 0.0 mm 0 W/m2
00:34 9.4 °C 7.7 °C 1024.4 hPa Calm     89.1% 0.0 mm 0 W/m2
00:39 9.5 °C 7.9 °C 1024.0 hPa Calm     89.9% 0.0 mm 0 W/m2
00:44 9.4 °C 7.9 °C 1024.4 hPa Calm     90.6% 0.0 mm 0 W/m2
00:49 9.4 °C 7.7 °C 1024.0 hPa Calm     89.1% 0.0 mm 0 W/m2
00:54 9.5 °C 7.8 °C 1024.4 hPa Calm     89.3% 0.0 mm 0 W/m2
00:59 9.5 °C 8.1 °C 1024.0 hPa Calm     90.7% 0.0 mm 0 W/m2
01:04 9.6 °C 8.2 °C 1024.0 hPa Calm     91% 0.0 mm 0 W/m2
01:09 9.6 °C 8.2 °C 1024.0 hPa Calm     91% 0.0 mm 0 W/m2
01:14 9.6 °C 8.3 °C 1024.0 hPa Calm     91.3% 0.0 mm 0 W/m2
01:19 9.6 °C 8.4 °C 1024.0 hPa Calm     92% 0.0 mm 0 W/m2
01:24 9.4 °C 8.1 °C 1024.0 hPa Calm     91.3% 0.0 mm 0 W/m2
01:29 9.4 °C 8 °C 1024.4 hPa Calm     91.1% 0.0 mm 0 W/m2
01:34 9.4 °C 8 °C 1024.0 hPa Calm     91% 0.0 mm 0 W/m2
01:39 9.4 °C 8.2 °C 1024.0 hPa Calm     92% 0.0 mm 0 W/m2
01:44 9.3 °C 8 °C 1024.0 hPa Calm     91.5% 0.0 mm 0 W/m2
01:49 9.3 °C 7.9 °C 1024.0 hPa Calm     91% 0.0 mm 0 W/m2
01:54 9.3 °C 7.9 °C 1024.0 hPa Calm     90.7% 0.0 mm 0 W/m2
01:59 9.4 °C 7.9 °C 1024.0 hPa Calm     90.7% 0.0 mm 0 W/m2
02:04 9.7 °C 8.1 °C 1024.0 hPa Calm     89.6% 0.0 mm 0 W/m2
02:09 9.7 °C 7.8 °C 1024.0 hPa Calm     88.2% 0.0 mm 0 W/m2
02:14 9.7 °C 7.8 °C 1024.0 hPa Calm     88% 0.0 mm 0 W/m2
02:19 9.8 °C 7.9 °C 1024.0 hPa Calm     88% 0.0 mm 0 W/m2
02:24 9.8 °C 7.9 °C 1024.0 hPa Calm     88% 0.0 mm 0 W/m2
02:29 9.8 °C 8 °C 1024.0 hPa Calm     88.3% 0.0 mm 0 W/m2
02:34 9.7 °C 8 °C 1024.0 hPa Calm     89.3% 0.0 mm 0 W/m2
02:39 9.7 °C 8 °C 1024.0 hPa Calm     89.4% 0.0 mm 0 W/m2
02:44 9.6 °C 8 °C 1024.0 hPa Calm     89.7% 0.0 mm 0 W/m2
02:49 9.6 °C 8 °C 1024.0 hPa Calm     90.2% 0.0 mm 0 W/m2
02:54 9.5 °C 7.8 °C 1024.0 hPa Calm     89.2% 0.0 mm 0 W/m2
02:59 9.5 °C 8 °C 1024.0 hPa Calm     90.9% 0.0 mm 0 W/m2
03:04 9.2 °C 7.8 °C 1024.0 hPa Calm     91% 0.0 mm 0 W/m2
03:09 9.2 °C 7.8 °C 1024.0 hPa Calm     90.9% 0.0 mm 0 W/m2
03:14 9.2 °C 7.7 °C 1024.0 hPa Calm     90.7% 0.0 mm 0 W/m2
03:19 9.2 °C 7.8 °C 1023.7 hPa Calm     91% 0.0 mm 0 W/m2
03:24 9.4 °C 7.8 °C 1023.7 hPa Calm     89.7% 0.0 mm 0 W/m2
03:29 9.4 °C 7.7 °C 1023.7 hPa Calm     89.3% 0.0 mm 0 W/m2
03:34 9.3 °C 8 °C 1023.7 hPa Calm     91.2% 0.0 mm 0 W/m2
03:39 9.3 °C 8.1 °C 1023.7 hPa Calm     92.3% 0.0 mm 0 W/m2
03:44 8.6 °C 7.5 °C 1023.7 hPa Calm     92.8% 0.0 mm 0 W/m2
03:49 8.6 °C 7.5 °C 1023.7 hPa Calm     92.7% 0.0 mm 0 W/m2
03:54 8.7 °C 7.3 °C 1023.7 hPa Calm     90.9% 0.0 mm 0 W/m2
03:59 8.7 °C 7.3 °C 1024.0 hPa Calm     90.9% 0.0 mm 0 W/m2
04:04 9 °C 7.5 °C 1023.7 hPa Calm     90.6% 0.0 mm 0 W/m2
04:09 9 °C 7.6 °C 1023.7 hPa Calm     91% 0.0 mm 0 W/m2
04:14 9 °C 7.8 °C 1023.7 hPa Calm     91.9% 0.0 mm 0 W/m2
04:19 8.9 °C 7.7 °C 1024.0 hPa Calm     92.1% 0.0 mm 0 W/m2
04:24 8.9 °C 7.5 °C 1023.7 hPa Calm     91.1% 0.0 mm 0 W/m2
04:29 8.8 °C 7.5 °C 1023.7 hPa Calm     91.3% 0.0 mm 0 W/m2
04:34 8.8 °C 7.4 °C 1023.7 hPa Calm     91.2% 0.0 mm 0 W/m2
04:39 8.8 °C 7.4 °C 1023.7 hPa Calm     91% 0.0 mm 0 W/m2
04:44 8.9 °C 7.5 °C 1023.7 hPa Calm     91% 0.0 mm 0 W/m2
04:49 8.9 °C 7.6 °C 1023.7 hPa Calm     91.4% 0.0 mm 0 W/m2
04:54 8.9 °C 7.7 °C 1024.0 hPa Calm     92% 0.0 mm 0 W/m2
04:59 8.8 °C 7.7 °C 1024.0 hPa Calm     92% 0.0 mm 0 W/m2
05:04 8.7 °C 7.6 °C 1024.0 hPa Calm     92.4% 0.0 mm 0 W/m2
05:09 8.7 °C 7.5 °C 1024.0 hPa Calm     91.8% 0.0 mm 0 W/m2
05:14 8.7 °C 7.5 °C 1024.0 hPa Calm     91.9% 0.0 mm 0 W/m2
05:19 8.8 °C 7.4 °C 1024.0 hPa Calm     91.2% 0.0 mm 0 W/m2
05:24 8.9 °C 7.6 °C 1024.0 hPa Calm     91.1% 0.0 mm 0 W/m2
05:29 8.9 °C 7.7 °C 1024.0 hPa Calm     92.3% 0.0 mm 0 W/m2
05:34 8.9 °C 7.7 °C 1023.7 hPa Calm     92.1% 0.0 mm 0 W/m2
05:39 8.8 °C 7.9 °C 1023.7 hPa Calm     93.7% 0.0 mm 0 W/m2
05:44 8.7 °C 7.7 °C 1023.7 hPa Calm     93.2% 0.0 mm 0 W/m2
05:49 8.7 °C 7.5 °C 1023.7 hPa Calm     93% 0.0 mm 0 W/m2
05:54 8.6 °C 7.5 °C 1023.7 hPa Calm     92.8% 0.0 mm 0 W/m2
05:59 8.6 °C 7.5 °C 1023.7 hPa Calm     93.1% 0.0 mm 0 W/m2
06:04 8.7 °C 7.6 °C 1023.7 hPa Calm     93% 0.0 mm 0 W/m2
06:09 8.8 °C 7.7 °C 1024.0 hPa Calm     93.1% 0.0 mm 0 W/m2
06:14 8.7 °C 7.7 °C 1024.0 hPa Calm     93.3% 0.0 mm 0 W/m2
06:19 8.7 °C 7.8 °C 1023.7 hPa Calm     94.3% 0.0 mm 0 W/m2
06:24 8.5 °C 7.6 °C 1023.7 hPa Calm     94% 0.0 mm 0 W/m2
06:29 8.4 °C 7.5 °C 1024.0 hPa Calm     94% 0.0 mm 0 W/m2
06:34 8.5 °C 7.5 °C 1024.0 hPa Calm     93.6% 0.0 mm 0 W/m2
06:39 8.5 °C 7.7 °C 1024.0 hPa Calm     94.9% 0.0 mm 0 W/m2
06:44 8.6 °C 7.8 °C 1024.0 hPa Calm     94.6% 0.0 mm 0 W/m2
06:49 8.7 °C 7.8 °C 1024.0 hPa Calm     94% 0.0 mm 0 W/m2
06:54 8.6 °C 7.7 °C 1024.0 hPa Calm     94% 0.0 mm 0 W/m2
06:59 8.6 °C 7.7 °C 1023.7 hPa Calm     94% 0.0 mm 0 W/m2
07:04 8.4 °C 7.6 °C 1023.7 hPa Calm     94.7% 0.0 mm 0 W/m2
07:09 8.4 °C 7.6 °C 1023.7 hPa Calm     95% 0.0 mm 0 W/m2
07:14 8.4 °C 7.5 °C 1024.0 hPa Calm     94% 0.0 mm 0 W/m2
07:19 8.4 °C 7.5 °C 1024.0 hPa Calm     94% 0.0 mm 2 W/m2
07:24 8.5 °C 7.6 °C 1023.7 hPa Calm     94% 0.0 mm 5 W/m2
07:29 8.7 °C 7.7 °C 1024.0 hPa Calm     93.8% 0.0 mm 8 W/m2
07:34 8.7 °C 7.6 °C 1024.0 hPa Calm     93% 0.0 mm 14 W/m2
07:39 8.7 °C 7.5 °C 1024.0 hPa Calm     92% 0.0 mm 22 W/m2
07:44 9.2 °C 7.9 °C 1024.0 hPa Calm     91.4% 0.0 mm 29 W/m2
07:49 9.5 °C 8.1 °C 1024.0 hPa Calm     91.1% 0.0 mm 38 W/m2
07:54 9.6 °C 8 °C 1024.0 hPa Calm     90% 0.0 mm 48 W/m2
07:59 9.8 °C 7.8 °C 1024.0 hPa Calm     87.6% 0.0 mm 56 W/m2
08:04 10.5 °C 8.6 °C 1024.0 hPa Calm     87.9% 0.0 mm 58 W/m2
08:09 11.1 °C 9.4 °C 1024.4 hPa Calm     88.9% 0.0 mm 50 W/m2
08:14 11 °C 9.2 °C 1024.0 hPa Calm     88.2% 0.0 mm 67 W/m2
08:19 11 °C 9.1 °C 1024.0 hPa Calm     88% 0.0 mm 82 W/m2
08:24 11.1 °C 9.4 °C 1024.4 hPa Calm     89% 0.0 mm 91 W/m2
08:29 11.4 °C 9.7 °C 1024.0 hPa Calm     88.7% 0.0 mm 100 W/m2
08:34 11.5 °C 9.1 °C 1024.4 hPa Calm     84.7% 0.0 mm 106 W/m2
08:39 11.8 °C 9.4 °C 1024.4 hPa Calm     85.6% 0.0 mm 106 W/m2
08:44 12 °C 9.8 °C 1024.4 hPa Calm     86.9% 0.0 mm 104 W/m2
08:49 12 °C 10 °C 1024.4 hPa Calm     87.1% 0.0 mm 111 W/m2
08:54 12.1 °C 9.6 °C 1024.4 hPa Calm     84.4% 0.0 mm 105 W/m2
08:59 12.2 °C 10 °C 1024.7 hPa Calm     86.7% 0.0 mm 102 W/m2
09:04 12.1 °C 10.1 °C 1024.4 hPa Calm     87.3% 0.0 mm 106 W/m2
09:09 11.9 °C 9.8 °C 1024.7 hPa Calm     87.2% 0.0 mm 111 W/m2
09:14 11.9 °C 9.8 °C 1024.7 hPa Calm     87% 0.0 mm 136 W/m2
09:19 12 °C 9.7 °C 1024.7 hPa Calm     85.8% 0.0 mm 135 W/m2
09:24 12 °C 9.7 °C 1024.7 hPa Calm     86% 0.0 mm 123 W/m2
09:29 11.9 °C 9.6 °C 1024.4 hPa Calm     85.6% 0.0 mm 117 W/m2
09:34 11.9 °C 9.6 °C 1024.4 hPa Calm     85.9% 0.0 mm 123 W/m2
09:39 12 °C 9.6 °C 1024.4 hPa Calm     85.2% 0.0 mm 129 W/m2
09:44 12.1 °C 9.8 °C 1024.4 hPa SE 0.3 km/h 7.9 km/h 86% 0.0 mm 132 W/m2
09:49 12.3 °C 10 °C 1024.4 hPa SE 0.7 km/h 4 km/h 85.9% 0.0 mm 132 W/m2
09:54 12.3 °C 9.9 °C 1024.4 hPa Calm     85% 0.0 mm 131 W/m2
09:59 12.4 °C 10.1 °C 1024.4 hPa Calm     85.6% 0.0 mm 120 W/m2
10:04 12.5 °C 10.3 °C 1024.4 hPa Calm     86.6% 0.0 mm 115 W/m2
10:09 12.6 °C 10.2 °C 1024.0 hPa Calm     85.4% 0.0 mm 122 W/m2
10:14 12.6 °C 10.2 °C 1024.0 hPa NE 0.3 km/h 7.9 km/h 85.1% 0.0 mm 110 W/m2
10:19 12.7 °C 10.3 °C 1024.4 hPa Calm   7.9 km/h 85.4% 0.0 mm 106 W/m2
10:24 12.8 °C 10 °C 1024.4 hPa ENE 0.2 km/h 4 km/h 83.5% 0.0 mm 109 W/m2
10:29 12.7 °C 10.3 °C 1024.4 hPa ESE 0.4 km/h 7.9 km/h 85.8% 0.0 mm 112 W/m2
10:34 12.8 °C 10 °C 1024.4 hPa SE 0.3 km/h 7.9 km/h 83% 0.0 mm 115 W/m2
10:39 13 °C 9.8 °C 1024.4 hPa Calm     81.2% 0.0 mm 122 W/m2
10:44 13.4 °C 10.1 °C 1024.4 hPa South 0.4 km/h 7.9 km/h 80.4% 0.0 mm 127 W/m2
10:49 14.4 °C 11.2 °C 1024.4 hPa SE 0.3 km/h 4 km/h 81.1% 0.0 mm 131 W/m2
10:54 14.4 °C 11.1 °C 1024.4 hPa ESE 0.8 km/h 4 km/h 80.4% 0.0 mm 136 W/m2
10:59 14.4 °C 11.1 °C 1024.0 hPa SSE 1.6 km/h 7.9 km/h 80.3% 0.0 mm 142 W/m2
11:04 14.5 °C 11.2 °C 1024.0 hPa SE 1.9 km/h 7.9 km/h 80.4% 0.0 mm 147 W/m2
11:09 14.3 °C 11.2 °C 1024.0 hPa SSE 0.3 km/h 4 km/h 81.2% 0.0 mm 151 W/m2
11:14 14.3 °C 11.1 °C 1024.0 hPa SE 1.2 km/h 7.9 km/h 81% 0.0 mm 158 W/m2
11:19 14.3 °C 11 °C 1024.0 hPa Calm   7.9 km/h 80.4% 0.0 mm 162 W/m2
11:24 14.2 °C 11.1 °C 1024.0 hPa SE 0.6 km/h 4 km/h 81.4% 0.0 mm 158 W/m2
11:29 14 °C 10.9 °C 1024.0 hPa East 0.1 km/h 4 km/h 81.8% 0.0 mm 141 W/m2
11:34 13.9 °C 11 °C 1024.0 hPa ESE 0.5 km/h 4 km/h 82.6% 0.0 mm 119 W/m2
11:39 13.8 °C 11.2 °C 1024.0 hPa NE 0.6 km/h 7.9 km/h 84% 0.0 mm 115 W/m2
11:44 13.7 °C 11.1 °C 1024.0 hPa Calm     84.4% 0.0 mm 110 W/m2
11:49 13.3 °C 10.7 °C 1024.0 hPa Calm     83.7% 0.0 mm 115 W/m2
11:54 13.3 °C 10.7 °C 1023.7 hPa Calm     84% 0.0 mm 107 W/m2
11:59 13.3 °C 10.6 °C 1023.7 hPa Calm   4 km/h 83.7% 0.0 mm 103 W/m2
12:04 13.3 °C 10.6 °C 1023.7 hPa East 0.9 km/h 7.9 km/h 83.4% 0.0 mm 221 W/m2
12:09 14 °C 10.8 °C 1023.7 hPa Calm   4 km/h 80.7% 0.0 mm 233 W/m2
12:14 14.1 °C 10.8 °C 1023.7 hPa Calm   7.9 km/h 80.2% 0.0 mm 240 W/m2
12:19 14.1 °C 10.9 °C 1023.7 hPa NE 0.2 km/h 4 km/h 80.9% 0.0 mm 250 W/m2
12:24 14.1 °C 10.8 °C 1023.4 hPa NNE 0.1 km/h 4 km/h 80.3% 0.0 mm 261 W/m2
12:29 14.2 °C 10.9 °C 1023.4 hPa Calm   4 km/h 80.6% 0.0 mm 266 W/m2
12:34 14.2 °C 10.9 °C 1023.4 hPa NE 1.7 km/h 12.2 km/h 81% 0.0 mm 281 W/m2
12:39 14.1 °C 10.9 °C 1023.4 hPa NNE 0.7 km/h 4 km/h 80.8% 0.0 mm 299 W/m2
12:44 14 °C 10.8 °C 1023.4 hPa NE 1.6 km/h 12.2 km/h 81% 0.0 mm 307 W/m2
12:49 13.8 °C 10.4 °C 1023.4 hPa Calm   12.2 km/h 80.2% 0.0 mm 315 W/m2
12:54 13.9 °C 10.2 °C 1023.0 hPa ESE 2.2 km/h 7.9 km/h 78.7% 0.0 mm 314 W/m2
12:59 14 °C 10.3 °C 1023.4 hPa NE 0.8 km/h 7.9 km/h 78.5% 0.0 mm 316 W/m2
13:04 14.1 °C 10.3 °C 1023.0 hPa NE 1 km/h 7.9 km/h 77.7% 0.0 mm 321 W/m2
13:09 14.1 °C 10.6 °C 1023.0 hPa NE 0.4 km/h 7.9 km/h 79.6% 0.0 mm 320 W/m2
13:14 14.1 °C 10.7 °C 1022.7 hPa Calm   4 km/h 80% 0.0 mm 318 W/m2
13:19 14.1 °C 10.6 °C 1022.7 hPa Calm     79.6% 0.0 mm 319 W/m2
13:24 14.2 °C 10.4 °C 1022.7 hPa Calm   4 km/h 78.4% 0.0 mm 324 W/m2
13:29 14.8 °C 11 °C 1022.7 hPa Calm   7.9 km/h 78.2% 0.0 mm 323 W/m2
13:34 14.8 °C 10.9 °C 1022.7 hPa Calm   4 km/h 77.4% 0.0 mm 321 W/m2
13:39 14.8 °C 10.8 °C 1022.4 hPa SE 0.6 km/h 7.9 km/h 76.9% 0.0 mm 319 W/m2
13:44 14.9 °C 10.9 °C 1022.4 hPa ESE 0.4 km/h 4 km/h 76.8% 0.0 mm 321 W/m2
13:49 15.2 °C 11 °C 1022.4 hPa Calm   4 km/h 76.4% 0.0 mm 316 W/m2
13:54 15.2 °C 11.3 °C 1022.4 hPa Calm     77.7% 0.0 mm 314 W/m2
13:59 15.1 °C 11.4 °C 1022.4 hPa Calm   4 km/h 78.6% 0.0 mm 308 W/m2
14:04 15.1 °C 11 °C 1022.4 hPa SE 0.5 km/h 7.9 km/h 76.7% 0.0 mm 306 W/m2
14:09 15.2 °C 11.3 °C 1022.4 hPa Calm     77.4% 0.0 mm 153 W/m2
14:14 15.2 °C 11.4 °C 1022.4 hPa Calm     78% 0.0 mm 117 W/m2
14:19 15.1 °C 11.3 °C 1022.4 hPa Calm     78% 0.0 mm 135 W/m2
14:24 15.1 °C 11.5 °C 1022.4 hPa Calm     79% 0.0 mm 257 W/m2
14:29 14.6 °C 11.2 °C 1022.4 hPa Calm     79.9% 0.0 mm 258 W/m2
14:34 14.5 °C 11 °C 1022.0 hPa Calm     79.6% 0.0 mm 281 W/m2
14:39 14.6 °C 10.9 °C 1022.4 hPa Calm     78.6% 0.0 mm 281 W/m2
14:44 14.6 °C 11 °C 1022.0 hPa ENE 0.1 km/h 4 km/h 79.2% 0.0 mm 267 W/m2
14:49 14.4 °C 11 °C 1022.0 hPa NNW 0.1 km/h 4 km/h 80% 0.0 mm 293 W/m2
14:54 14.4 °C 10.9 °C 1022.0 hPa Calm     79.3% 0.0 mm 289 W/m2
14:59 14.5 °C 10.9 °C 1022.0 hPa Calm     79.1% 0.0 mm 272 W/m2
15:04 14.5 °C 10.9 °C 1022.0 hPa Calm     79% 0.0 mm 251 W/m2
15:09 14.7 °C 11.2 °C 1022.0 hPa Calm     79.8% 0.0 mm 136 W/m2
15:14 14.6 °C 11.3 °C 1022.0 hPa Calm     80.4% 0.0 mm 157 W/m2
15:19 14.6 °C 11.2 °C 1022.0 hPa Calm     79.8% 0.0 mm 182 W/m2
15:24 14.6 °C 11.2 °C 1022.0 hPa Calm     80% 0.0 mm 177 W/m2
15:29 14.4 °C 11.2 °C 1022.0 hPa Calm     80.8% 0.0 mm 84 W/m2
15:34 14.3 °C 11.2 °C 1022.0 hPa Calm     81.6% 0.0 mm 153 W/m2
15:39 14.3 °C 11.2 °C 1022.0 hPa Calm     81.9% 0.0 mm 140 W/m2
15:44 14.2 °C 11.2 °C 1022.0 hPa Calm     82% 0.0 mm 59 W/m2
15:49 13.9 °C 10.9 °C 1022.0 hPa Calm     82% 0.0 mm 59 W/m2
15:54 13.7 °C 10.8 °C 1022.0 hPa Calm     82.3% 0.0 mm 59 W/m2
15:59 13.6 °C 10.8 °C 1022.0 hPa Calm     83% 0.0 mm 55 W/m2
16:04 13.6 °C 10.8 °C 1022.0 hPa Calm     83.2% 0.0 mm 51 W/m2
16:09 13.4 °C 10.8 °C 1021.7 hPa Calm     83.9% 0.0 mm 50 W/m2
16:14 13.3 °C 10.7 °C 1022.0 hPa Calm     84.3% 0.0 mm 49 W/m2
16:19 13.2 °C 10.8 °C 1022.0 hPa Calm     85.4% 0.0 mm 45 W/m2
16:24 13.2 °C 10.9 °C 1022.0 hPa Calm     86% 0.0 mm 44 W/m2
16:29 13.1 °C 10.8 °C 1022.0 hPa Calm     86% 0.0 mm 41 W/m2
16:34 13 °C 10.7 °C 1022.0 hPa Calm     86% 0.0 mm 38 W/m2
16:39 13 °C 10.7 °C 1022.0 hPa Calm     86% 0.0 mm 33 W/m2
16:44 13 °C 10.7 °C 1022.0 hPa Calm     86% 0.0 mm 27 W/m2
16:49 12.8 °C 10.6 °C 1022.0 hPa Calm     86.1% 0.0 mm 23 W/m2
16:54 12.8 °C 10.7 °C 1022.0 hPa Calm     87% 0.0 mm 16 W/m2
16:59 12.8 °C 10.9 °C 1022.0 hPa Calm     88% 0.0 mm 10 W/m2
17:04 12.7 °C 10.8 °C 1022.0 hPa Calm     87.6% 0.0 mm 7 W/m2
17:09 12.5 °C 10.7 °C 1022.0 hPa Calm     88.3% 0.0 mm 4 W/m2
17:14 12.3 °C 10.5 °C 1022.4 hPa Calm     89% 0.0 mm 2 W/m2
17:19 12.3 °C 10.4 °C 1022.4 hPa Calm     88.1% 0.0 mm 0 W/m2
17:24 12.3 °C 10.5 °C 1022.4 hPa Calm     89% 0.0 mm 0 W/m2
17:29 12.1 °C 10.3 °C 1022.0 hPa Calm     89% 0.0 mm 0 W/m2
17:34 11.9 °C 10.1 °C 1022.4 hPa Calm     89% 0.0 mm 0 W/m2
17:39 11.9 °C 10.1 °C 1022.4 hPa Calm     89% 0.0 mm 0 W/m2
17:44 11.9 °C 10.2 °C 1022.4 hPa Calm     89.5% 0.0 mm 0 W/m2
17:49 11.8 °C 10 °C 1022.4 hPa Calm     89% 0.0 mm 0 W/m2
17:54 11.8 °C 10 °C 1022.4 hPa Calm     89% 0.0 mm 0 W/m2
17:59 11.8 °C 10 °C 1022.4 hPa Calm     89% 0.0 mm 0 W/m2
18:04 11.8 °C 10 °C 1022.4 hPa Calm     89% 0.0 mm 0 W/m2
18:09 11.9 °C 10.1 °C 1022.4 hPa Calm     89% 0.0 mm 0 W/m2
18:14 11.9 °C 10.2 °C 1022.7 hPa Calm     89.5% 0.0 mm 0 W/m2
18:19 11.9 °C 10.3 °C 1022.7 hPa Calm     90% 0.0 mm 0 W/m2
18:24 11.8 °C 10.1 °C 1022.7 hPa Calm     89.6% 0.0 mm 0 W/m2
18:29 11.6 °C 10 °C 1022.7 hPa Calm     89.6% 0.0 mm 0 W/m2
18:34 11.4 °C 9.7 °C 1022.7 hPa Calm     89.2% 0.0 mm 0 W/m2
18:39 11.4 °C 9.5 °C 1022.7 hPa Calm     87.8% 0.0 mm 0 W/m2
18:44 11.6 °C 9.4 °C 1022.7 hPa Calm     86.6% 0.0 mm 0 W/m2
18:49 12 °C 9.6 °C 1022.7 hPa Calm     85.1% 0.0 mm 0 W/m2
18:54 12.3 °C 9.8 °C 1022.7 hPa Calm     84.3% 0.0 mm 0 W/m2
18:59 12.3 °C 9.7 °C 1022.7 hPa Calm     84% 0.0 mm 0 W/m2
19:04 12.3 °C 9.6 °C 1023.0 hPa Calm     83.3% 0.0 mm 0 W/m2
19:09 12.3 °C 9.6 °C 1022.7 hPa Calm     83% 0.0 mm 0 W/m2
19:14 12.4 °C 9.6 °C 1023.0 hPa Calm     83% 0.0 mm 0 W/m2
19:19 12.4 °C 9.8 °C 1023.0 hPa Calm     84% 0.0 mm 0 W/m2
19:24 12.4 °C 9.8 °C 1023.0 hPa Calm     84% 0.0 mm 0 W/m2
19:29 12.2 °C 9.8 °C 1022.7 hPa Calm     84.6% 0.0 mm 0 W/m2
19:34 12.1 °C 9.6 °C 1022.7 hPa Calm     84.4% 0.0 mm 0 W/m2
19:39 12.1 °C 9.6 °C 1022.7 hPa Calm     84.6% 0.0 mm 0 W/m2
19:44 12.1 °C 9.8 °C 1023.0 hPa Calm     85.6% 0.0 mm 0 W/m2
19:49 12 °C 9.6 °C 1023.0 hPa Calm     85.4% 0.0 mm 0 W/m2
19:54 11.7 °C 9.5 °C 1023.0 hPa Calm     86.4% 0.0 mm 0 W/m2
19:59 11.7 °C 9.4 °C 1023.0 hPa Calm     86% 0.0 mm 0 W/m2
20:04 11.8 °C 9.6 °C 1023.0 hPa Calm     86.6% 0.0 mm 0 W/m2
20:09 11.9 °C 9.6 °C 1022.7 hPa Calm     86% 0.0 mm 0 W/m2
20:14 12.1 °C 9.8 °C 1023.0 hPa Calm     85.5% 0.0 mm 0 W/m2
20:19 12.1 °C 9.8 °C 1023.0 hPa Calm     85.7% 0.0 mm 0 W/m2
20:24 12.1 °C 9.7 °C 1023.0 hPa Calm     85.4% 0.0 mm 0 W/m2
20:29 12.1 °C 9.7 °C 1023.0 hPa Calm     84.7% 0.0 mm 0 W/m2
20:34 12.2 °C 9.8 °C 1023.0 hPa Calm     85% 0.0 mm 0 W/m2
20:39 12.2 °C 9.8 °C 1023.0 hPa Calm     85.6% 0.0 mm 0 W/m2
20:44 12.2 °C 9.9 °C 1023.0 hPa Calm     86% 0.0 mm 0 W/m2
20:49 12.2 °C 9.8 °C 1023.0 hPa Calm     86% 0.0 mm 0 W/m2
20:54 12 °C 9.7 °C 1023.0 hPa Calm     85.9% 0.0 mm 0 W/m2
20:59 12.1 °C 9.8 °C 1023.4 hPa Calm     86% 0.0 mm 0 W/m2
21:04 12 °C 10 °C 1023.4 hPa Calm     87.6% 0.0 mm 0 W/m2
21:09 11.9 °C 10 °C 1023.4 hPa Calm     87.8% 0.0 mm 0 W/m2
21:14 11.6 °C 9.6 °C 1023.4 hPa Calm     87.4% 0.0 mm 0 W/m2
21:19 11.6 °C 9.5 °C 1023.4 hPa Calm     87.2% 0.0 mm 0 W/m2
21:24 11.6 °C 9.7 °C 1023.4 hPa Calm     88.4% 0.0 mm 0 W/m2
21:29 11.5 °C 9.7 °C 1023.4 hPa Calm     89% 0.0 mm 0 W/m2
21:34 11.4 °C 9.6 °C 1023.4 hPa Calm     88.7% 0.0 mm 0 W/m2
21:39 11.4 °C 9.5 °C 1023.4 hPa Calm     88% 0.0 mm 0 W/m2
21:44 11.4 °C 9.5 °C 1023.4 hPa Calm     88.2% 0.0 mm 0 W/m2
21:49 11.4 °C 9.7 °C 1023.4 hPa Calm     89% 0.0 mm 0 W/m2
21:54 11.4 °C 9.5 °C 1023.4 hPa Calm     88.1% 0.0 mm 0 W/m2
21:59 11.4 °C 9.4 °C 1023.4 hPa Calm     87.7% 0.0 mm 0 W/m2
22:04 11.4 °C 9.6 °C 1023.4 hPa Calm     88.6% 0.0 mm 0 W/m2
22:09 11.4 °C 9.7 °C 1023.4 hPa Calm     89% 0.0 mm 0 W/m2
22:14 11.2 °C 9.5 °C 1023.4 hPa Calm     89% 0.0 mm 0 W/m2
22:19 11.2 °C 9.5 °C 1023.4 hPa Calm     89% 0.0 mm 0 W/m2
22:24 11.2 °C 9.5 °C 1023.4 hPa Calm     89% 0.0 mm 0 W/m2
22:29 11.2 °C 9.5 °C 1023.4 hPa Calm     89% 0.0 mm 0 W/m2
22:34 11.1 °C 9.4 °C 1023.4 hPa Calm     88.9% 0.0 mm 0 W/m2
22:39 11.1 °C 9.4 °C 1023.7 hPa Calm     89% 0.0 mm 0 W/m2
22:44 11.1 °C 9.4 °C 1023.4 hPa Calm     89% 0.0 mm 0 W/m2
22:49 11.1 °C 9.4 °C 1023.4 hPa Calm     89% 0.0 mm 0 W/m2
22:54 10.9 °C 9.3 °C 1023.4 hPa Calm     89.4% 0.0 mm 0 W/m2
22:59 10.9 °C 9.3 °C 1023.4 hPa Calm     89.5% 0.0 mm 0 W/m2
23:04 11 °C 9.3 °C 1023.4 hPa Calm     89% 0.0 mm 0 W/m2
23:09 11 °C 9.2 °C 1023.4 hPa Calm     88.4% 0.0 mm 0 W/m2
23:14 11 °C 9.3 °C 1023.4 hPa Calm     89.3% 0.0 mm 0 W/m2
23:19 11 °C 9.5 °C 1023.4 hPa Calm     90.6% 0.0 mm 0 W/m2
23:24 10.9 °C 9.5 °C 1023.4 hPa Calm     91% 0.0 mm 0 W/m2
23:29 10.8 °C 9.4 °C 1023.4 hPa Calm     91% 0.0 mm 0 W/m2
23:34 10.4 °C 9 °C 1023.4 hPa Calm     91.2% 0.0 mm 0 W/m2
23:39 10.4 °C 9 °C 1023.4 hPa Calm     90.9% 0.0 mm 0 W/m2
23:44 10.4 °C 8.9 °C 1023.4 hPa Calm     90.4% 0.0 mm 0 W/m2
23:49 10.4 °C 8.9 °C 1023.4 hPa Calm     90.6% 0.0 mm 0 W/m2
23:54 10.3 °C 8.9 °C 1023.4 hPa Calm     91% 0.0 mm 0 W/m2
23:59 10.3 °C 8.8 °C 1023.7 hPa Calm     90.3% 0.0 mm 0 W/m2
Juneau County Weather
Compliments of Weather Underground - 2 mb